createdAt,value
2018-02-04T00:01:18.584Z,12.33
2018-02-04T00:03:44.870Z,14.00
2018-02-04T00:06:11.167Z,13.00
2018-02-04T00:08:37.461Z,13.10
2018-02-04T00:11:03.766Z,13.73
2018-02-04T00:13:30.057Z,13.20
2018-02-04T00:15:57.045Z,13.43
2018-02-04T00:18:23.366Z,12.40
2018-02-04T00:20:49.674Z,12.63
2018-02-04T00:23:15.947Z,12.57
2018-02-04T00:25:42.258Z,13.40
2018-02-04T00:28:08.510Z,14.67
2018-02-04T00:30:34.794Z,14.80
2018-02-04T00:33:01.106Z,14.10
2018-02-04T00:35:27.366Z,14.37
2018-02-04T00:37:53.722Z,13.60
2018-02-04T00:40:20.778Z,13.23
2018-02-04T00:42:47.038Z,14.77
2018-02-04T00:45:13.333Z,12.73
2018-02-04T00:47:39.633Z,13.60
2018-02-04T00:50:05.913Z,13.10
2018-02-04T00:52:32.909Z,13.30
2018-02-04T00:54:59.246Z,15.03
2018-02-04T00:57:25.533Z,12.77
2018-02-04T00:59:51.789Z,12.20
2018-02-04T01:02:18.809Z,12.27
2018-02-04T01:04:45.087Z,15.47
2018-02-04T01:07:11.350Z,23.83
2018-02-04T01:09:38.382Z,60.03
2018-02-04T01:12:05.395Z,43.13
2018-02-04T01:14:31.711Z,30.17
2018-02-04T01:16:57.982Z,30.40
2018-02-04T01:19:24.244Z,23.47
2018-02-04T01:21:50.542Z,20.13
2018-02-04T01:24:16.808Z,17.57
2018-02-04T01:26:43.066Z,19.40
2018-02-04T01:29:09.366Z,17.07
2018-02-04T01:31:35.616Z,14.50
2018-02-04T01:34:01.874Z,16.07
2018-02-04T01:36:28.166Z,14.03
2018-02-04T01:38:54.441Z,14.63
2018-02-04T01:41:20.745Z,13.87
2018-02-04T01:43:47.013Z,15.13
2018-02-04T01:46:14.010Z,15.57
2018-02-04T01:48:40.348Z,16.03
2018-02-04T01:51:06.639Z,15.43
2018-02-04T01:53:32.931Z,17.63
2018-02-04T01:55:59.201Z,14.77
2018-02-04T01:58:26.205Z,50.33
2018-02-04T02:00:52.568Z,54.67
2018-02-04T02:03:18.830Z,40.53
2018-02-04T02:05:45.122Z,19.53
2018-02-04T02:08:11.374Z,23.53
2018-02-04T02:10:37.625Z,20.30
2018-02-04T02:13:03.903Z,19.73
2018-02-04T02:15:30.165Z,20.77
2018-02-04T02:17:56.441Z,17.83
2018-02-04T02:20:22.694Z,14.53
2018-02-04T02:22:48.981Z,14.70
2018-02-04T02:25:16.010Z,15.50
2018-02-04T02:27:43.018Z,15.57
2018-02-04T02:30:09.342Z,14.80
2018-02-04T02:32:35.610Z,13.37
2018-02-04T02:35:01.871Z,15.07
2018-02-04T02:37:28.154Z,14.60
2018-02-04T02:39:54.430Z,14.20
2018-02-04T02:42:20.746Z,14.97
2018-02-04T02:44:47.001Z,14.20
2018-02-04T02:47:13.269Z,15.17
2018-02-04T02:49:40.293Z,15.37
2018-02-04T02:52:07.378Z,15.47
2018-02-04T02:54:33.673Z,14.67
2018-02-04T02:56:59.939Z,14.57
2018-02-04T02:59:26.202Z,16.03
2018-02-04T03:01:52.497Z,14.70
2018-02-04T03:04:19.502Z,14.83
2018-02-04T03:06:45.820Z,14.47
2018-02-04T03:09:12.086Z,16.50
2018-02-04T03:11:38.353Z,15.90
2018-02-04T03:14:04.634Z,16.03
2018-02-04T03:16:30.897Z,13.60
2018-02-04T03:18:57.942Z,15.77
2018-02-04T03:21:24.962Z,16.67
2018-02-04T03:23:52.013Z,17.63
2018-02-04T03:26:18.304Z,14.77
2018-02-04T03:28:44.572Z,15.30
2018-02-04T03:31:10.865Z,13.60
2018-02-04T03:33:37.124Z,14.67
2018-02-04T03:36:03.402Z,15.83
2018-02-04T03:38:29.688Z,14.97
2018-02-04T03:40:56.695Z,16.23
2018-02-04T03:43:22.984Z,17.77
2018-02-04T03:45:49.238Z,17.93
2018-02-04T03:48:15.549Z,15.67
2018-02-04T03:50:41.821Z,16.37
2018-02-04T03:53:08.086Z,17.77
2018-02-04T03:55:35.117Z,17.37
2018-02-04T03:58:02.136Z,16.50
2018-02-04T04:00:28.390Z,15.20
2018-02-04T04:02:54.709Z,13.87
2018-02-04T04:05:20.965Z,16.43
2018-02-04T04:07:47.253Z,15.63
2018-02-04T04:10:13.506Z,15.63
2018-02-04T04:12:39.785Z,14.73
2018-02-04T04:15:06.081Z,15.57
2018-02-04T04:17:32.365Z,14.30
2018-02-04T04:19:59.426Z,14.20
2018-02-04T04:22:25.691Z,14.50
2018-02-04T04:24:51.973Z,15.87
2018-02-04T04:27:18.345Z,13.43
2018-02-04T04:29:44.626Z,16.53
2018-02-04T04:32:10.945Z,16.30
2018-02-04T04:34:37.218Z,14.80
2018-02-04T04:37:03.478Z,16.13
2018-02-04T04:39:29.758Z,15.93
2018-02-04T04:41:56.026Z,17.57
2018-02-04T04:44:22.314Z,16.20
2018-02-04T04:46:48.614Z,13.53
2018-02-04T04:49:14.912Z,15.47
2018-02-04T04:51:41.242Z,17.23
2018-02-04T04:54:08.241Z,15.77
2018-02-04T04:56:35.299Z,15.10
2018-02-04T04:59:01.611Z,15.63
2018-02-04T05:01:27.880Z,17.83
2018-02-04T05:03:54.161Z,17.63
2018-02-04T05:06:20.424Z,16.00
2018-02-04T05:08:47.487Z,15.90
2018-02-04T05:11:13.754Z,17.03
2018-02-04T05:13:40.035Z,16.73
2018-02-04T05:16:07.067Z,16.77
2018-02-04T05:18:33.342Z,16.93
2018-02-04T05:21:00.397Z,17.80
2018-02-04T05:23:26.691Z,16.47
2018-02-04T05:25:53.734Z,17.80
2018-02-04T05:28:19.998Z,15.17
2018-02-04T05:30:46.285Z,15.47
2018-02-04T05:33:12.586Z,16.50
2018-02-04T05:35:38.850Z,15.83
2018-02-04T05:38:05.132Z,17.07
2018-02-04T05:40:31.405Z,15.23
2018-02-04T05:42:57.870Z,16.50
2018-02-04T05:45:24.146Z,16.27
2018-02-04T05:47:51.147Z,17.23
2018-02-04T05:50:17.455Z,17.90
2018-02-04T05:52:43.731Z,17.33
2018-02-04T05:55:10.055Z,17.53
2018-02-04T05:57:36.392Z,16.83
2018-02-04T06:00:02.725Z,15.80
2018-02-04T06:02:29.010Z,18.53
2018-02-04T06:04:55.270Z,15.97
2018-02-04T06:07:21.620Z,17.00
2018-02-04T06:09:47.917Z,18.30
2018-02-04T06:12:14.910Z,16.73
2018-02-04T06:14:41.210Z,17.27
2018-02-04T06:17:07.482Z,16.70
2018-02-04T06:19:34.565Z,17.63
2018-02-04T06:22:00.858Z,18.63
2018-02-04T06:24:27.158Z,18.67
2018-02-04T06:26:53.522Z,19.53
2018-02-04T06:29:19.784Z,16.93
2018-02-04T06:31:46.839Z,16.77
2018-02-04T06:34:13.137Z,17.10
2018-02-04T06:36:39.410Z,17.20
2018-02-04T06:39:05.694Z,17.73
2018-02-04T06:41:31.946Z,17.13
2018-02-04T06:43:58.260Z,18.13
2018-02-04T06:46:24.577Z,18.93
2018-02-04T06:48:51.343Z,23.23
2018-02-04T06:51:17.634Z,22.90
2018-02-04T06:53:43.930Z,23.27
2018-02-04T06:56:10.235Z,28.17
2018-02-04T06:58:36.519Z,24.47
2018-02-04T07:01:02.780Z,22.60
2018-02-04T07:03:29.069Z,19.43
2018-02-04T07:05:55.338Z,20.50
2018-02-04T07:08:22.354Z,25.50
2018-02-04T07:10:48.610Z,25.67
2018-02-04T07:13:14.884Z,26.17
2018-02-04T07:15:41.202Z,31.30
2018-02-04T07:18:08.210Z,24.87
2018-02-04T07:20:34.523Z,27.13
2018-02-04T07:23:00.793Z,24.77
2018-02-04T07:25:27.074Z,21.00
2018-02-04T07:27:53.413Z,20.03
2018-02-04T07:30:20.434Z,21.10
2018-02-04T07:32:47.462Z,18.30
2018-02-04T07:35:14.482Z,17.70
2018-02-04T07:37:40.755Z,14.30
2018-02-04T07:40:07.055Z,12.13
2018-02-04T07:42:33.317Z,14.07
2018-02-04T07:44:59.606Z,14.63
2018-02-04T07:47:25.970Z,14.00
2018-02-04T07:49:52.229Z,15.67
2018-02-04T07:52:18.510Z,11.30
2018-02-04T07:54:45.523Z,14.87
2018-02-04T07:57:11.814Z,11.20
2018-02-04T07:59:38.074Z,12.53
2018-02-04T08:02:05.079Z,7.60
2018-02-04T08:04:31.388Z,13.33
2018-02-04T08:06:57.654Z,9.17
2018-02-04T08:09:23.991Z,11.10
2018-02-04T08:11:50.263Z,11.73
2018-02-04T08:14:17.258Z,10.93
2018-02-04T08:16:43.591Z,11.87
2018-02-04T08:19:09.870Z,12.63
2018-02-04T08:21:36.165Z,12.57
2018-02-04T08:24:02.426Z,11.50
2018-02-04T08:26:28.720Z,9.87
2018-02-04T08:28:55.037Z,10.53
2018-02-04T08:31:22.082Z,12.10
2018-02-04T08:33:48.372Z,11.30
2018-02-04T08:36:14.731Z,11.10
2018-02-04T08:38:40.995Z,13.80
2018-02-04T08:41:07.270Z,12.40
2018-02-04T08:43:33.518Z,12.90
2018-02-04T08:45:59.798Z,13.67
2018-02-04T08:48:26.816Z,14.70
2018-02-04T08:50:53.083Z,13.50
2018-02-04T08:53:19.448Z,13.80
2018-02-04T08:55:45.729Z,14.80
2018-02-04T08:58:12.027Z,15.33
2018-02-04T09:00:38.330Z,14.07
2018-02-04T09:03:04.586Z,14.60
2018-02-04T09:05:30.874Z,12.90
2018-02-04T09:07:57.126Z,13.63
2018-02-04T09:10:23.415Z,13.40
2018-02-04T09:12:49.695Z,12.67
2018-02-04T09:15:16.705Z,15.13
2018-02-04T09:17:42.990Z,12.07
2018-02-04T09:20:09.249Z,14.47
2018-02-04T09:22:36.362Z,12.27
2018-02-04T09:25:02.664Z,12.27
2018-02-04T09:27:28.942Z,12.60
2018-02-04T09:29:55.479Z,11.73
2018-02-04T09:32:21.798Z,12.23
2018-02-04T09:34:48.070Z,12.27
2018-02-04T09:37:15.119Z,12.77
2018-02-04T09:39:41.382Z,13.33
2018-02-04T09:42:07.792Z,11.87
2018-02-04T09:44:34.923Z,11.60
2018-02-04T09:47:01.264Z,12.03
2018-02-04T09:49:28.334Z,12.60
2018-02-04T09:51:54.643Z,13.27
2018-02-04T09:54:21.902Z,14.00
2018-02-04T09:56:48.212Z,12.73
2018-02-04T09:59:15.296Z,14.13
2018-02-04T10:01:41.944Z,14.23
2018-02-04T10:04:08.235Z,13.00
2018-02-04T10:06:34.608Z,12.07
2018-02-04T10:09:00.910Z,14.53
2018-02-04T10:11:27.211Z,12.13
2018-02-04T10:13:54.290Z,13.20
2018-02-04T10:16:20.560Z,13.20
2018-02-04T10:18:47.566Z,14.27
2018-02-04T10:21:13.868Z,13.60
2018-02-04T10:23:40.156Z,15.53
2018-02-04T10:26:06.468Z,14.30
2018-02-04T10:28:32.782Z,15.40
2018-02-04T10:30:59.823Z,16.43
2018-02-04T10:33:26.289Z,14.87
2018-02-04T10:35:52.546Z,15.13
2018-02-04T10:38:18.821Z,14.77
2018-02-04T10:40:45.078Z,14.57
2018-02-04T10:43:11.335Z,14.40
2018-02-04T10:45:37.707Z,14.30
2018-02-04T10:48:03.930Z,15.30
2018-02-04T10:50:30.311Z,13.97
2018-02-04T10:52:57.334Z,18.03
2018-02-04T10:55:23.600Z,16.77
2018-02-04T10:57:49.909Z,16.23
2018-02-04T11:00:16.188Z,15.80
2018-02-04T11:02:43.249Z,15.50
2018-02-04T11:05:09.515Z,17.03
2018-02-04T11:07:35.791Z,18.63
2018-02-04T11:10:02.086Z,15.63
2018-02-04T11:12:28.354Z,14.77
2018-02-04T11:14:54.653Z,14.93
2018-02-04T11:17:20.922Z,13.93
2018-02-04T11:19:47.200Z,13.90
2018-02-04T11:22:13.548Z,14.40
2018-02-04T11:24:40.563Z,14.30
2018-02-04T11:27:06.910Z,14.23
2018-02-04T11:29:33.188Z,16.40
2018-02-04T11:31:59.495Z,18.87
2018-02-04T11:34:25.761Z,17.17
2018-02-04T11:36:52.018Z,17.63
2018-02-04T11:39:18.304Z,17.43
2018-02-04T11:41:44.575Z,13.30
2018-02-04T11:44:11.594Z,15.03
2018-02-04T11:46:37.883Z,12.73
2018-02-04T11:49:04.238Z,13.47
2018-02-04T11:51:31.274Z,14.07
2018-02-04T11:53:58.315Z,13.00
2018-02-04T11:56:25.354Z,11.10
2018-02-04T11:58:52.381Z,12.40
2018-02-04T12:01:19.390Z,13.97
2018-02-04T12:03:45.682Z,13.43
2018-02-04T12:06:11.955Z,12.43
2018-02-04T12:08:38.221Z,11.67
2018-02-04T12:11:04.522Z,12.33
2018-02-04T12:13:30.802Z,12.37
2018-02-04T12:15:57.119Z,11.97
2018-02-04T12:18:23.389Z,12.17
2018-02-04T12:20:49.666Z,11.10
2018-02-04T12:23:15.965Z,11.87
2018-02-04T12:25:42.229Z,12.23
2018-02-04T12:28:08.534Z,12.33
2018-02-04T12:30:34.849Z,11.40
2018-02-04T12:33:01.155Z,11.33
2018-02-04T12:35:27.449Z,11.17
2018-02-04T12:37:53.751Z,11.57
2018-02-04T12:40:20.947Z,12.57
2018-02-04T12:42:47.222Z,11.00
2018-02-04T12:45:13.495Z,11.47
2018-02-04T12:47:39.836Z,13.73
2018-02-04T12:50:06.830Z,13.03
2018-02-04T12:52:33.151Z,11.10
2018-02-04T12:54:59.475Z,12.67
2018-02-04T12:57:25.735Z,12.87
2018-02-04T12:59:52.054Z,11.60
2018-02-04T13:02:18.327Z,12.73
2018-02-04T13:04:45.678Z,11.50
2018-02-04T13:07:11.959Z,12.00
2018-02-04T13:09:38.226Z,11.67
2018-02-04T13:12:04.546Z,12.93
2018-02-04T13:14:30.835Z,10.27
2018-02-04T13:16:57.898Z,11.47
2018-02-04T13:19:24.170Z,11.67
2018-02-04T13:21:51.184Z,10.17
2018-02-04T13:24:17.471Z,10.93
2018-02-04T13:26:43.749Z,11.77
2018-02-04T13:29:10.036Z,11.83
2018-02-04T13:31:36.344Z,11.47
2018-02-04T13:34:02.651Z,10.23
2018-02-04T13:36:28.934Z,11.33
2018-02-04T13:38:55.225Z,12.50
2018-02-04T13:41:22.265Z,11.27
2018-02-04T13:43:48.538Z,12.10
2018-02-04T13:46:14.862Z,15.50
2018-02-04T13:48:41.963Z,15.30
2018-02-04T13:51:08.253Z,12.77
2018-02-04T13:53:34.531Z,11.10
2018-02-04T13:56:00.827Z,20.03
2018-02-04T13:58:28.950Z,14.27
2018-02-04T14:00:55.996Z,10.93
2018-02-04T14:03:23.460Z,11.07
2018-02-04T14:05:50.961Z,11.73
2018-02-04T14:08:17.260Z,11.17
2018-02-04T14:10:44.932Z,11.00
2018-02-04T14:13:11.215Z,11.90
2018-02-04T14:15:37.522Z,10.77
2018-02-04T14:18:04.537Z,12.10
2018-02-04T14:20:30.822Z,12.87
2018-02-04T14:22:57.322Z,12.67
2018-02-04T14:25:23.616Z,15.30
2018-02-04T14:27:50.952Z,12.53
2018-02-04T14:30:17.974Z,12.13
2018-02-04T14:32:44.263Z,11.77
2018-02-04T14:35:10.591Z,14.50
2018-02-04T14:37:36.859Z,15.60
2018-02-04T14:40:03.163Z,15.13
2018-02-04T14:42:29.435Z,10.90
2018-02-04T14:44:55.693Z,13.93
2018-02-04T14:47:22.002Z,12.50
2018-02-04T14:49:48.268Z,13.63
2018-02-04T14:52:14.570Z,13.93
2018-02-04T14:54:40.847Z,21.03
2018-02-04T14:57:07.114Z,18.77
2018-02-04T14:59:33.403Z,17.33
2018-02-04T15:01:59.655Z,14.77
2018-02-04T15:04:25.951Z,12.97
2018-02-04T15:06:52.249Z,13.03
2018-02-04T15:09:18.505Z,13.43
2018-02-04T15:11:44.794Z,11.70
2018-02-04T15:14:11.067Z,11.50
2018-02-04T15:16:37.366Z,11.53
2018-02-04T15:19:04.388Z,11.97
2018-02-04T15:21:30.687Z,11.53
2018-02-04T15:23:57.020Z,11.87
2018-02-04T15:26:23.297Z,11.57
2018-02-04T15:28:49.623Z,12.47
2018-02-04T15:31:15.901Z,11.33
2018-02-04T15:33:42.167Z,11.80
2018-02-04T15:36:08.502Z,11.80
2018-02-04T15:38:35.532Z,12.30
2018-02-04T15:41:01.832Z,12.27
2018-02-04T15:43:28.110Z,10.47
2018-02-04T15:45:54.378Z,11.47
2018-02-04T15:48:20.651Z,12.97
2018-02-04T15:50:46.905Z,10.43
2018-02-04T15:53:13.195Z,11.80
2018-02-04T15:55:39.462Z,13.47
2018-02-04T15:58:05.726Z,21.37
2018-02-04T16:00:32.039Z,13.70
2018-02-04T16:02:58.319Z,11.67
2018-02-04T16:05:24.670Z,11.47
2018-02-04T16:07:50.947Z,11.43
2018-02-04T16:10:17.242Z,11.40
2018-02-04T16:12:44.357Z,10.03
2018-02-04T16:15:10.641Z,11.20
2018-02-04T16:17:36.906Z,11.10
2018-02-04T16:20:03.922Z,10.30
2018-02-04T16:22:30.196Z,11.23
2018-02-04T16:24:56.486Z,11.53
2018-02-04T16:27:22.762Z,11.80
2018-02-04T16:29:49.075Z,11.07
2018-02-04T16:32:15.343Z,11.20
2018-02-04T16:34:41.607Z,10.43
2018-02-04T16:37:07.924Z,12.80
2018-02-04T16:39:34.186Z,22.53
2018-02-04T16:42:00.510Z,15.53
2018-02-04T16:44:27.523Z,11.97
2018-02-04T16:46:53.787Z,13.23
2018-02-04T16:49:20.168Z,11.30
2018-02-04T16:51:46.431Z,11.13
2018-02-04T16:54:12.796Z,11.23
2018-02-04T16:56:39.143Z,17.80
2018-02-04T16:59:06.271Z,19.60
2018-02-04T17:01:32.577Z,16.37
2018-02-04T17:03:59.600Z,15.60
2018-02-04T17:06:25.918Z,12.00
2018-02-04T17:08:52.191Z,12.47
2018-02-04T17:11:19.358Z,11.97
2018-02-04T17:13:45.886Z,11.50
2018-02-04T17:16:12.698Z,10.43
2018-02-04T17:18:39.619Z,11.33
2018-02-04T17:21:06.650Z,10.17
2018-02-04T17:23:34.606Z,11.30
2018-02-04T17:26:00.933Z,12.37
2018-02-04T17:28:27.352Z,11.33
2018-02-04T17:30:53.723Z,12.40
2018-02-04T17:33:21.357Z,13.07
2018-02-04T17:35:48.239Z,11.73
2018-02-04T17:38:14.915Z,12.73
2018-02-04T17:40:42.582Z,11.70
2018-02-04T17:43:08.903Z,12.27
2018-02-04T17:45:35.698Z,11.73
2018-02-04T17:48:01.990Z,11.50
2018-02-04T17:50:34.063Z,11.63
2018-02-04T17:53:00.780Z,12.07
2018-02-04T17:55:27.580Z,11.60
2018-02-04T17:57:54.398Z,10.60
2018-02-04T18:00:22.020Z,13.03
2018-02-04T18:02:48.393Z,14.57
2018-02-04T18:05:15.897Z,13.50
2018-02-04T18:07:42.666Z,13.77
2018-02-04T18:10:11.034Z,12.53
2018-02-04T18:12:37.335Z,12.80
2018-02-04T18:15:04.223Z,12.20
2018-02-04T18:17:31.950Z,12.47
2018-02-04T18:19:58.319Z,11.53
2018-02-04T18:22:24.590Z,12.43
2018-02-04T18:24:53.952Z,11.50
2018-02-04T18:27:20.979Z,11.47
2018-02-04T18:29:47.245Z,10.90
2018-02-04T18:32:14.775Z,11.50
2018-02-04T18:34:42.350Z,12.17
2018-02-04T18:37:09.170Z,11.30
2018-02-04T18:39:36.896Z,11.30
2018-02-04T18:42:04.227Z,10.80
2018-02-04T18:44:30.977Z,11.23
2018-02-04T18:46:58.124Z,11.73
2018-02-04T18:49:25.027Z,10.63
2018-02-04T18:51:51.471Z,10.13
2018-02-04T18:54:19.977Z,10.73
2018-02-04T18:56:47.782Z,10.73
2018-02-04T18:59:15.842Z,10.60
2018-02-04T19:01:42.958Z,12.83
2018-02-04T19:04:09.221Z,11.00
2018-02-04T19:06:35.554Z,10.27
2018-02-04T19:09:01.874Z,10.20
2018-02-04T19:11:28.154Z,11.47
2018-02-04T19:13:54.447Z,10.47
2018-02-04T19:16:21.469Z,11.00
2018-02-04T19:18:48.526Z,10.67
2018-02-04T19:21:14.807Z,10.23
2018-02-04T19:23:41.091Z,11.93
2018-02-04T19:26:07.387Z,14.57
2018-02-04T19:28:33.675Z,14.63
2018-02-04T19:31:00.739Z,13.53
2018-02-04T19:33:27.024Z,13.23
2018-02-04T19:35:54.059Z,13.67
2018-02-04T19:38:21.096Z,12.47
2018-02-04T19:40:47.382Z,11.97
2018-02-04T19:43:13.674Z,11.13
2018-02-04T19:45:40.005Z,10.40
2018-02-04T19:48:06.249Z,9.93
2018-02-04T19:50:33.328Z,11.53
2018-02-04T19:53:00.361Z,10.87
2018-02-04T19:55:27.091Z,9.23
2018-02-04T19:57:53.434Z,12.23
2018-02-04T20:00:19.723Z,10.97
2018-02-04T20:02:46.037Z,11.23
2018-02-04T20:05:12.325Z,10.87
2018-02-04T20:07:38.621Z,10.77
2018-02-04T20:10:05.058Z,10.83
2018-02-04T20:12:31.404Z,11.17
2018-02-04T20:14:58.159Z,11.37
2018-02-04T20:17:24.432Z,12.60
2018-02-04T20:19:50.760Z,11.97
2018-02-04T20:22:17.055Z,10.87
2018-02-04T20:24:43.352Z,9.80
2018-02-04T20:27:09.739Z,9.60
2018-02-04T20:29:36.102Z,10.20
2018-02-04T20:32:02.748Z,10.47
2018-02-04T20:34:41.324Z,10.13
2018-02-04T20:37:07.656Z,9.23
2018-02-04T20:39:33.950Z,16.80
2018-02-04T20:42:01.027Z,13.63
2018-02-04T20:44:27.342Z,10.33
2018-02-04T20:46:54.108Z,10.97
2018-02-04T20:49:21.154Z,9.70
2018-02-04T20:51:47.445Z,10.00
2018-02-04T20:54:14.456Z,10.60
2018-02-04T20:56:41.441Z,12.20
2018-02-04T20:59:07.735Z,12.70
2018-02-04T21:01:36.966Z,12.37
2018-02-04T21:04:04.896Z,11.37
2018-02-04T21:06:33.911Z,12.60
2018-02-04T21:09:07.598Z,10.83
2018-02-04T21:11:42.266Z,10.00
2018-02-04T21:14:11.274Z,9.53
2018-02-04T21:16:43.033Z,10.40
2018-02-04T21:19:10.383Z,9.83
2018-02-04T21:21:37.438Z,9.40
2018-02-04T21:24:09.191Z,10.10
2018-02-04T21:26:37.035Z,9.27
2018-02-04T21:29:05.353Z,9.73
2018-02-04T21:31:32.328Z,10.37
2018-02-04T21:33:59.876Z,9.33
2018-02-04T21:36:27.189Z,10.80
2018-02-04T21:38:53.677Z,10.27
2018-02-04T21:41:20.691Z,11.77
2018-02-04T21:43:58.128Z,10.90
2018-02-04T21:46:25.850Z,11.53
2018-02-04T21:48:52.363Z,11.43
2018-02-04T21:51:18.660Z,12.17
2018-02-04T21:53:48.879Z,11.93
2018-02-04T21:56:15.472Z,10.83
2018-02-04T21:58:42.290Z,11.43
2018-02-04T22:01:10.338Z,10.53
2018-02-04T22:03:37.454Z,12.00
2018-02-04T22:06:03.936Z,12.03
2018-02-04T22:08:30.981Z,12.10
2018-02-04T22:10:57.324Z,11.67
2018-02-04T22:13:23.655Z,12.67
2018-02-04T22:15:50.725Z,12.60
2018-02-04T22:18:16.995Z,12.37
2018-02-04T22:20:43.380Z,11.27
2018-02-04T22:23:14.131Z,12.43
2018-02-04T22:25:45.172Z,12.27
2018-02-04T22:28:16.025Z,11.93
2018-02-04T22:30:42.710Z,12.50
2018-02-04T22:33:09.414Z,12.53
2018-02-04T22:35:35.982Z,11.50
2018-02-04T22:38:06.705Z,12.33
2018-02-04T22:40:33.003Z,12.13
2018-02-04T22:43:00.070Z,12.17
2018-02-04T22:45:26.357Z,11.90
2018-02-04T22:47:53.384Z,12.23
2018-02-04T22:50:20.445Z,12.80
2018-02-04T22:52:46.771Z,11.53
2018-02-04T22:55:13.029Z,12.93
2018-02-04T22:57:39.398Z,12.60
2018-02-04T23:00:05.714Z,12.03
2018-02-04T23:02:32.012Z,12.10
2018-02-04T23:04:58.282Z,11.83
2018-02-04T23:07:24.541Z,11.27
2018-02-04T23:09:50.884Z,10.57
2018-02-04T23:12:17.156Z,11.80
2018-02-04T23:14:44.197Z,11.30
2018-02-04T23:17:10.459Z,12.53
2018-02-04T23:19:36.747Z,11.97
2018-02-04T23:22:03.082Z,11.13
2018-02-04T23:24:29.373Z,12.47
2018-02-04T23:26:55.662Z,11.60
2018-02-04T23:29:22.674Z,11.83
2018-02-04T23:31:48.954Z,10.93
2018-02-04T23:34:15.255Z,12.03
2018-02-04T23:36:41.525Z,12.13
2018-02-04T23:39:07.810Z,12.63
2018-02-04T23:41:34.099Z,12.77
2018-02-04T23:44:00.399Z,11.67
2018-02-04T23:46:26.698Z,12.57
2018-02-04T23:48:53.730Z,12.13
2018-02-04T23:51:20.767Z,13.97
2018-02-04T23:53:47.806Z,12.57
2018-02-04T23:56:14.811Z,12.37
2018-02-04T23:58:41.099Z,14.10
